M/V Ave Maria — WDD5063 — position and weather

sailwx.info

Track history (hours):
 
Tides and Currents Weather Stations Pressure Air Temp Water Temp Dewpoint Dewpoint Depression Visibility Wind Speed Wind Dir Waves Ship Positions

M/V Ave Maria

Owner: Marquette Transportation Company Gulf-Inland, LLC, Jefferson, LA. More information available from US FCC via Universal Licensing System and Coast Guard Vessel Documentation Center.

Last reported at 2017-Sep-23 22:58 UTC. Time now 2017-Sep-24 06:57 UTC.
Position N 29°56' W 093°02'.

Length 23 m; draft 3 m.

Type: Towing. MMSI: 367126410.

Date/timePositionNaut miles runAvg speedWind from/ knotsBaromVisibWave heightAir tempDewpointWater temp
2017-Sep-23 22:58N 29°56' W 093°02'2 3.9
2017-Sep-23 22:30N 29°56' W 093°04'2 3.9
2017-Sep-23 22:00N 29°56' W 093°07'2 3.8
2017-Sep-23 21:30N 29°56' W 093°09'2 3.6
2017-Sep-23 21:00N 29°57' W 093°10'2 3.8
2017-Sep-23 20:30N 29°59' W 093°12'2 3.7
2017-Sep-23 20:00N 29°60' W 093°13'99 2.2
2017-Sep-22 00:02N 29°46' W 095°06'0 1.1
2017-Sep-21 23:49N 29°45' W 095°06'0 0.8
2017-Sep-21 23:20N 29°46' W 095°05'1 3.9
2017-Sep-21 23:00N 29°45' W 095°04'2 4.3
2017-Sep-21 22:30N 29°44' W 095°02'2 3.8
2017-Sep-21 22:00N 29°42' W 095°01'2 4.2
2017-Sep-21 21:31N 29°41' W 094°59'2 4.2
2017-Sep-21 21:00N 29°39' W 094°58'2 4.6
2017-Sep-21 20:31N 29°37' W 094°57'2 4.6
2017-Sep-21 20:00N 29°35' W 094°56'2 4.6
2017-Sep-21 19:30N 29°33' W 094°55'2 4.4
2017-Sep-21 18:59N 29°31' W 094°53'68 3.0
2017-Sep-20 20:00N 30°03' W 093°44'10 3.7
2017-Sep-20 17:21N 30°04' W 093°32'1 3.2
2017-Sep-20 17:00N 30°04' W 093°31'2 3.2
2017-Sep-20 16:30N 30°04' W 093°29'1 3.0
2017-Sep-20 16:00N 30°04' W 093°27'1 2.7
2017-Sep-20 15:31N 30°04' W 093°26'2 3.2
2017-Sep-20 15:00N 30°04' W 093°24'3 3.1
2017-Sep-20 14:00N 30°04' W 093°21'2 3.8
2017-Sep-20 13:31N 30°06' W 093°19'1 2.2
2017-Sep-20 13:01N 30°06' W 093°18'1 1.3
2017-Sep-20 12:31N 30°05' W 093°17'1 2.3
2017-Sep-20 12:01N 30°04' W 093°16'0 0.6
2017-Sep-20 11:31N 30°04' W 093°16'0 0.0
2017-Sep-20 11:01N 30°04' W 093°16'0 0.0
2017-Sep-20 10:31N 30°04' W 093°16'0 0.0
2017-Sep-20 10:01N 30°04' W 093°16'0 0.0
2017-Sep-20 09:31N 30°04' W 093°16'0 0.0
2017-Sep-20 09:01N 30°04' W 093°16'0 0.0
2017-Sep-20 08:31N 30°04' W 093°16'0 0.0
2017-Sep-20 08:01N 30°04' W 093°16'0 0.0
2017-Sep-20 07:31N 30°04' W 093°16'0 0.0
2017-Sep-20 07:01N 30°04' W 093°16'0 0.0
2017-Sep-20 06:31N 30°04' W 093°16'0 0.0
2017-Sep-20 06:01N 30°04' W 093°16'0 0.0
2017-Sep-20 05:30N 30°04' W 093°16'0 0.0
2017-Sep-20 05:01N 30°04' W 093°16'0 0.0
2017-Sep-20 04:31N 30°04' W 093°16'0 0.0
2017-Sep-20 04:01N 30°04' W 093°16'0 0.0
2017-Sep-20 03:31N 30°04' W 093°16'0 0.0
2017-Sep-20 03:00N 30°04' W 093°16'0 0.1
2017-Sep-20 02:31N 30°04' W 093°16'1 1.4
2017-Sep-20 02:01N 30°03' W 093°16'1 2.9
2017-Sep-20 01:31N 30°02' W 093°15'2 3.1
2017-Sep-20 01:01N 30°01' W 093°14'2 3.1
2017-Sep-20 00:31N 29°60' W 093°13'2 3.2
2017-Sep-20 00:00N 29°58' W 093°12'2 3.7
2017-Sep-19 23:30N 29°57' W 093°10'2 3.3
2017-Sep-19 23:01N 29°56' W 093°09'2 3.6
2017-Sep-19 22:31N 29°56' W 093°07'2 3.8
2017-Sep-19 22:01N 29°56' W 093°05'2 3.2
2017-Sep-19 21:30N 29°56' W 093°03'36 3.1
2017-Sep-19 09:48N 29°51' W 092°21'1 2.6
2017-Sep-19 09:28N 29°51' W 092°20'1 3.0
2017-Sep-19 09:00N 29°50' W 092°19'1 2.6
2017-Sep-19 08:31N 29°50' W 092°18'0 0.4
2017-Sep-19 08:01N 29°49' W 092°18'1 1.4
2017-Sep-19 07:31N 29°49' W 092°17'1 2.9
2017-Sep-19 07:00N 29°48' W 092°16'2 3.0
2017-Sep-19 06:30N 29°48' W 092°14'1 2.7
2017-Sep-19 06:01N 29°47' W 092°12'1 2.5
2017-Sep-19 05:30N 29°47' W 092°11'1 2.1
2017-Sep-19 05:01N 29°47' W 092°10'1 2.5
2017-Sep-19 04:31N 29°47' W 092°09'2 3.7
2017-Sep-19 04:00N 29°48' W 092°07'2 3.7
2017-Sep-19 03:31N 29°48' W 092°05'2 3.6
2017-Sep-19 03:01N 29°49' W 092°03'2 3.3
2017-Sep-19 02:31N 29°49' W 092°01'2 3.4
2017-Sep-19 01:58N 29°50' W 091°59'54 3.3
2017-Sep-18 09:36N 29°36' W 090°58'0 4.0
2017-Sep-18 09:30N 29°36' W 090°58'3 3.8
2017-Sep-18 08:46N 29°34' W 090°56'1 4.0
2017-Sep-18 08:27N 29°33' W 090°55'2 3.9
2017-Sep-18 08:00N 29°32' W 090°53'2 3.8
2017-Sep-18 07:22N 29°32' W 090°50'1 3.9
2017-Sep-18 07:01N 29°32' W 090°49'2 3.7
2017-Sep-18 06:31N 29°32' W 090°47'2 3.0
2017-Sep-18 06:00N 29°33' W 090°45'1 2.9
2017-Sep-18 05:31N 29°34' W 090°44'1 2.6
2017-Sep-18 05:01N 29°35' W 090°43'2 3.4
2017-Sep-18 04:30N 29°37' W 090°42'1 1.3
2017-Sep-18 04:01N 29°37' W 090°42'0 0.0
2017-Sep-18 03:31N 29°37' W 090°42'1 1.5
2017-Sep-18 03:01N 29°36' W 090°41'2 3.4
2017-Sep-18 02:31N 29°36' W 090°39'2 3.3
2017-Sep-18 02:00N 29°35' W 090°38'2 3.1
2017-Sep-18 01:31N 29°35' W 090°36'2 3.3
2017-Sep-18 01:01N 29°34' W 090°34'2 3.3
2017-Sep-18 00:31N 29°34' W 090°32'2 3.6
2017-Sep-18 00:01N 29°34' W 090°30'2 3.6
2017-Sep-17 23:30N 29°33' W 090°28'2 3.6
2017-Sep-17 23:01N 29°33' W 090°26'2 3.6
2017-Sep-17 22:29N 29°33' W 090°24'  
2017-Sep-14 03:33N 29°50' W 091°59'0 5.2
2017-Sep-14 03:30N 29°50' W 091°60'3 5.1
2017-Sep-14 03:01N 29°49' W 092°02'3 5.2
2017-Sep-14 02:31N 29°48' W 092°05'3 5.3
2017-Sep-14 02:00N 29°47' W 092°08'3 5.3
2017-Sep-14 01:31N 29°47' W 092°11'2 4.7
2017-Sep-14 01:01N 29°48' W 092°14'2 4.1
2017-Sep-14 00:30N 29°48' W 092°16'3 5.4
2017-Sep-14 00:00N 29°50' W 092°18'  
Track history (hours):
 
Tides and Currents Weather Stations Pressure Air Temp Water Temp Dewpoint Dewpoint Depression Visibility Wind Speed Wind Dir Waves Ship Positions

M/V Ave Maria

Owner: Marquette Transportation Company Gulf-Inland, LLC, Jefferson, LA. More information available from US FCC via Universal Licensing System and Coast Guard Vessel Documentation Center.

Last reported at 2017-Sep-23 22:58 UTC. Time now 2017-Sep-24 06:57 UTC.
Position N 29°56' W 093°02'.

Length 23 m; draft 3 m.

Type: Towing. MMSI: 367126410.

Date/timePositionNaut miles runAvg speedWind from/ knotsBaromVisibWave heightAir tempDewpointWater temp
2017-Sep-23 22:58N 29°56' W 093°02'2 3.9
2017-Sep-23 22:30N 29°56' W 093°04'2 3.9
2017-Sep-23 22:00N 29°56' W 093°07'2 3.8
2017-Sep-23 21:30N 29°56' W 093°09'2 3.6
2017-Sep-23 21:00N 29°57' W 093°10'2 3.8
2017-Sep-23 20:30N 29°59' W 093°12'2 3.7
2017-Sep-23 20:00N 29°60' W 093°13'99 2.2
2017-Sep-22 00:02N 29°46' W 095°06'0 1.1
2017-Sep-21 23:49N 29°45' W 095°06'0 0.8
2017-Sep-21 23:20N 29°46' W 095°05'1 3.9
2017-Sep-21 23:00N 29°45' W 095°04'2 4.3
2017-Sep-21 22:30N 29°44' W 095°02'2 3.8
2017-Sep-21 22:00N 29°42' W 095°01'2 4.2
2017-Sep-21 21:31N 29°41' W 094°59'2 4.2
2017-Sep-21 21:00N 29°39' W 094°58'2 4.6
2017-Sep-21 20:31N 29°37' W 094°57'2 4.6
2017-Sep-21 20:00N 29°35' W 094°56'2 4.6
2017-Sep-21 19:30N 29°33' W 094°55'2 4.4
2017-Sep-21 18:59N 29°31' W 094°53'68 3.0
2017-Sep-20 20:00N 30°03' W 093°44'10 3.7
2017-Sep-20 17:21N 30°04' W 093°32'1 3.2
2017-Sep-20 17:00N 30°04' W 093°31'2 3.2
2017-Sep-20 16:30N 30°04' W 093°29'1 3.0
2017-Sep-20 16:00N 30°04' W 093°27'1 2.7
2017-Sep-20 15:31N 30°04' W 093°26'2 3.2
2017-Sep-20 15:00N 30°04' W 093°24'3 3.1
2017-Sep-20 14:00N 30°04' W 093°21'2 3.8
2017-Sep-20 13:31N 30°06' W 093°19'1 2.2
2017-Sep-20 13:01N 30°06' W 093°18'1 1.3
2017-Sep-20 12:31N 30°05' W 093°17'1 2.3
2017-Sep-20 12:01N 30°04' W 093°16'0 0.6
2017-Sep-20 11:31N 30°04' W 093°16'0 0.0
2017-Sep-20 11:01N 30°04' W 093°16'0 0.0
2017-Sep-20 10:31N 30°04' W 093°16'0 0.0
2017-Sep-20 10:01N 30°04' W 093°16'0 0.0
2017-Sep-20 09:31N 30°04' W 093°16'0 0.0
2017-Sep-20 09:01N 30°04' W 093°16'0 0.0
2017-Sep-20 08:31N 30°04' W 093°16'0 0.0
2017-Sep-20 08:01N 30°04' W 093°16'0 0.0
2017-Sep-20 07:31N 30°04' W 093°16'0 0.0
2017-Sep-20 07:01N 30°04' W 093°16'0 0.0
2017-Sep-20 06:31N 30°04' W 093°16'0 0.0
2017-Sep-20 06:01N 30°04' W 093°16'0 0.0
2017-Sep-20 05:30N 30°04' W 093°16'0 0.0
2017-Sep-20 05:01N 30°04' W 093°16'0 0.0
2017-Sep-20 04:31N 30°04' W 093°16'0 0.0
2017-Sep-20 04:01N 30°04' W 093°16'0 0.0
2017-Sep-20 03:31N 30°04' W 093°16'0 0.0
2017-Sep-20 03:00N 30°04' W 093°16'0 0.1
2017-Sep-20 02:31N 30°04' W 093°16'1 1.4
2017-Sep-20 02:01N 30°03' W 093°16'1 2.9
2017-Sep-20 01:31N 30°02' W 093°15'2 3.1
2017-Sep-20 01:01N 30°01' W 093°14'2 3.1
2017-Sep-20 00:31N 29°60' W 093°13'2 3.2
2017-Sep-20 00:00N 29°58' W 093°12'2 3.7
2017-Sep-19 23:30N 29°57' W 093°10'2 3.3
2017-Sep-19 23:01N 29°56' W 093°09'2 3.6
2017-Sep-19 22:31N 29°56' W 093°07'2 3.8
2017-Sep-19 22:01N 29°56' W 093°05'2 3.2
2017-Sep-19 21:30N 29°56' W 093°03'36 3.1
2017-Sep-19 09:48N 29°51' W 092°21'1 2.6
2017-Sep-19 09:28N 29°51' W 092°20'1 3.0
2017-Sep-19 09:00N 29°50' W 092°19'1 2.6
2017-Sep-19 08:31N 29°50' W 092°18'0 0.4
2017-Sep-19 08:01N 29°49' W 092°18'1 1.4
2017-Sep-19 07:31N 29°49' W 092°17'1 2.9
2017-Sep-19 07:00N 29°48' W 092°16'2 3.0
2017-Sep-19 06:30N 29°48' W 092°14'1 2.7
2017-Sep-19 06:01N 29°47' W 092°12'1 2.5
2017-Sep-19 05:30N 29°47' W 092°11'1 2.1
2017-Sep-19 05:01N 29°47' W 092°10'1 2.5
2017-Sep-19 04:31N 29°47' W 092°09'2 3.7
2017-Sep-19 04:00N 29°48' W 092°07'2 3.7
2017-Sep-19 03:31N 29°48' W 092°05'2 3.6
2017-Sep-19 03:01N 29°49' W 092°03'2 3.3
2017-Sep-19 02:31N 29°49' W 092°01'2 3.4
2017-Sep-19 01:58N 29°50' W 091°59'54 3.3
2017-Sep-18 09:36N 29°36' W 090°58'0 4.0
2017-Sep-18 09:30N 29°36' W 090°58'3 3.8
2017-Sep-18 08:46N 29°34' W 090°56'1 4.0
2017-Sep-18 08:27N 29°33' W 090°55'2 3.9
2017-Sep-18 08:00N 29°32' W 090°53'2 3.8
2017-Sep-18 07:22N 29°32' W 090°50'1 3.9
2017-Sep-18 07:01N 29°32' W 090°49'2 3.7
2017-Sep-18 06:31N 29°32' W 090°47'2 3.0
2017-Sep-18 06:00N 29°33' W 090°45'1 2.9
2017-Sep-18 05:31N 29°34' W 090°44'1 2.6
2017-Sep-18 05:01N 29°35' W 090°43'2 3.4
2017-Sep-18 04:30N 29°37' W 090°42'1 1.3
2017-Sep-18 04:01N 29°37' W 090°42'0 0.0
2017-Sep-18 03:31N 29°37' W 090°42'1 1.5
2017-Sep-18 03:01N 29°36' W 090°41'2 3.4
2017-Sep-18 02:31N 29°36' W 090°39'2 3.3
2017-Sep-18 02:00N 29°35' W 090°38'2 3.1
2017-Sep-18 01:31N 29°35' W 090°36'2 3.3
2017-Sep-18 01:01N 29°34' W 090°34'2 3.3
2017-Sep-18 00:31N 29°34' W 090°32'2 3.6
2017-Sep-18 00:01N 29°34' W 090°30'2 3.6
2017-Sep-17 23:30N 29°33' W 090°28'2 3.6
2017-Sep-17 23:01N 29°33' W 090°26'2 3.6
2017-Sep-17 22:29N 29°33' W 090°24'  
2017-Sep-14 03:33N 29°50' W 091°59'0 5.2
2017-Sep-14 03:30N 29°50' W 091°60'3 5.1
2017-Sep-14 03:01N 29°49' W 092°02'3 5.2
2017-Sep-14 02:31N 29°48' W 092°05'3 5.3
2017-Sep-14 02:00N 29°47' W 092°08'3 5.3
2017-Sep-14 01:31N 29°47' W 092°11'2 4.7
2017-Sep-14 01:01N 29°48' W 092°14'2 4.1
2017-Sep-14 00:30N 29°48' W 092°16'3 5.4
2017-Sep-14 00:00N 29°50' W 092°18'  

Dump ship's entire track history